createdAt,value
2023-01-29T00:00:34.965Z,102071.28
2023-01-29T00:03:25.627Z,102082.59
2023-01-29T00:05:55.607Z,102059.19
2023-01-29T00:08:28.724Z,102055.66
2023-01-29T00:11:03.722Z,102054.59
2023-01-29T00:13:34.605Z,102051.13
2023-01-29T00:16:06.318Z,102046.28
2023-01-29T00:18:37.392Z,102040.19
2023-01-29T00:21:11.008Z,102043.69
2023-01-29T00:23:45.157Z,102049.53
2023-01-29T00:26:15.657Z,102047.88
2023-01-29T00:28:47.505Z,102053.06
2023-01-29T00:31:19.256Z,102053.00
2023-01-29T00:33:50.174Z,102045.22
2023-01-29T00:36:22.432Z,102036.47
2023-01-29T00:39:03.964Z,102026.94
2023-01-29T00:41:48.086Z,102032.09
2023-01-29T00:44:31.500Z,102016.56
2023-01-29T00:47:02.258Z,102020.22
2023-01-29T00:49:33.053Z,102023.63
2023-01-29T00:52:15.643Z,102010.69
2023-01-29T00:54:48.554Z,102014.16
2023-01-29T00:57:18.644Z,102007.38
2023-01-29T00:59:50.067Z,102012.44
2023-01-29T01:02:32.624Z,102012.41
2023-01-29T01:05:07.226Z,102005.53
2023-01-29T01:07:38.284Z,102017.50
2023-01-29T01:10:24.445Z,102008.75
2023-01-29T01:12:58.939Z,102015.69
2023-01-29T01:15:33.181Z,102011.41
2023-01-29T01:18:04.986Z,102015.84
2023-01-29T01:20:40.181Z,102018.53
2023-01-29T01:23:11.793Z,102020.41
2023-01-29T01:25:48.998Z,102017.66
2023-01-29T01:28:22.452Z,102014.91
2023-01-29T01:30:54.682Z,102016.75
2023-01-29T01:33:31.817Z,102022.66
2023-01-29T01:36:05.632Z,102019.03
2023-01-29T01:38:45.469Z,102018.03
2023-01-29T01:41:24.646Z,102008.56
2023-01-29T01:44:00.266Z,102006.88
2023-01-29T01:46:37.070Z,102010.34
2023-01-29T01:49:13.530Z,102017.47
2023-01-29T01:51:49.785Z,102026.31
2023-01-29T01:54:28.250Z,102016.03
2023-01-29T01:57:17.427Z,102022.00
2023-01-29T01:59:55.982Z,102022.81
2023-01-29T02:02:40.521Z,102018.63
2023-01-29T02:05:26.274Z,102012.44
2023-01-29T02:08:09.359Z,102003.81
2023-01-29T02:10:44.500Z,101999.47
2023-01-29T02:13:19.473Z,101995.09
2023-01-29T02:15:50.048Z,102000.25
2023-01-29T02:18:24.073Z,101998.38
2023-01-29T02:21:10.628Z,101986.53
2023-01-29T02:24:04.350Z,101989.84
2023-01-29T02:26:47.273Z,101993.28
2023-01-29T02:29:27.250Z,101996.06
2023-01-29T02:32:12.670Z,101989.16
2023-01-29T02:35:02.491Z,101993.38
2023-01-29T02:37:38.986Z,101990.00
2023-01-29T02:40:18.918Z,101988.28
2023-01-29T02:42:57.144Z,101990.03
2023-01-29T02:45:38.424Z,101989.28
2023-01-29T02:48:08.976Z,101991.81
2023-01-29T02:50:46.075Z,101996.94
2023-01-29T02:53:19.167Z,101984.81
2023-01-29T02:55:55.383Z,101983.84
2023-01-29T02:58:33.448Z,101976.88
2023-01-29T03:01:12.654Z,101971.63
2023-01-29T03:03:47.375Z,101956.19
2023-01-29T03:06:23.484Z,101961.47
2023-01-29T03:08:58.078Z,101963.25
2023-01-29T03:11:32.733Z,101973.69
2023-01-29T03:14:07.400Z,101965.88
2023-01-29T03:16:45.464Z,101968.41
2023-01-29T03:19:18.499Z,101972.75
2023-01-29T03:21:59.257Z,101958.88
2023-01-29T03:24:49.472Z,101950.94
2023-01-29T03:27:35.772Z,101955.19
2023-01-29T03:30:20.437Z,101965.72
2023-01-29T03:32:54.669Z,101964.94
2023-01-29T03:35:36.653Z,101960.66
2023-01-29T03:38:10.005Z,101946.75
2023-01-29T03:40:52.011Z,101942.28
2023-01-29T03:43:33.045Z,101949.41
2023-01-29T03:46:08.483Z,101945.03
2023-01-29T03:48:52.194Z,101936.53
2023-01-29T03:51:29.119Z,101930.41
2023-01-29T03:54:08.882Z,101935.66
2023-01-29T03:56:55.417Z,101924.50
2023-01-29T03:59:36.104Z,101914.13
2023-01-29T04:02:10.196Z,101907.19
2023-01-29T04:04:47.961Z,101903.66
2023-01-29T04:07:23.802Z,101903.63
2023-01-29T04:09:57.498Z,101897.47
2023-01-29T04:12:31.583Z,101882.78
2023-01-29T04:15:04.519Z,101889.66
2023-01-29T04:17:40.563Z,101888.09
2023-01-29T04:20:15.027Z,101878.56
2023-01-29T04:22:48.447Z,101870.06
2023-01-29T04:25:26.777Z,101862.94
2023-01-29T04:28:06.193Z,101860.44
2023-01-29T04:30:45.419Z,101850.00
2023-01-29T04:33:30.091Z,101856.19
2023-01-29T04:36:20.603Z,101857.25
2023-01-29T04:39:01.363Z,101857.06
2023-01-29T04:41:36.821Z,101837.19
2023-01-29T04:44:15.395Z,101841.34
2023-01-29T04:46:52.291Z,101837.06
2023-01-29T04:49:35.259Z,101839.72
2023-01-29T04:52:15.209Z,101848.38
2023-01-29T04:55:01.178Z,101847.44
2023-01-29T04:57:38.832Z,101849.72
2023-01-29T05:00:15.200Z,101848.97
2023-01-29T05:02:48.286Z,101847.19
2023-01-29T05:05:22.224Z,101845.50
2023-01-29T05:07:56.131Z,101846.31
2023-01-29T05:10:27.672Z,101851.72
2023-01-29T05:13:03.140Z,101852.59
2023-01-29T05:15:39.770Z,101857.63
2023-01-29T05:18:11.576Z,101850.69
2023-01-29T05:20:44.284Z,101858.53
2023-01-29T05:23:22.636Z,101857.66
2023-01-29T05:25:54.380Z,101855.84
2023-01-29T05:28:22.535Z,101853.38
2023-01-29T05:30:55.181Z,101858.47
2023-01-29T05:33:26.963Z,101854.97
2023-01-29T05:35:57.915Z,101864.41
2023-01-29T05:38:30.752Z,101868.72
2023-01-29T05:41:01.787Z,101873.78
2023-01-29T05:43:32.075Z,101876.75
2023-01-29T05:46:04.917Z,101877.84
2023-01-29T05:48:35.272Z,101883.91
2023-01-29T05:51:06.033Z,101878.91
2023-01-29T05:53:39.012Z,101877.16
2023-01-29T05:56:09.644Z,101885.63
2023-01-29T05:58:40.029Z,101887.50
2023-01-29T06:01:15.144Z,101893.34
2023-01-29T06:03:46.253Z,101889.06
2023-01-29T06:06:16.855Z,101904.44
2023-01-29T06:08:49.947Z,101902.75
2023-01-29T06:11:21.699Z,101908.88
2023-01-29T06:13:52.031Z,101910.44
2023-01-29T06:16:22.035Z,101919.00
2023-01-29T06:18:52.327Z,101916.34
2023-01-29T06:21:22.263Z,101915.50
2023-01-29T06:23:55.437Z,101918.09
2023-01-29T06:26:25.485Z,101918.97
2023-01-29T06:28:55.786Z,101913.00
2023-01-29T06:31:37.832Z,101913.88
2023-01-29T06:34:09.636Z,101906.94
2023-01-29T06:36:39.975Z,101905.94
2023-01-29T06:39:13.142Z,101902.47
2023-01-29T06:41:43.138Z,101902.44
2023-01-29T06:44:13.470Z,101910.16
2023-01-29T06:46:43.467Z,101899.78
2023-01-29T06:49:13.825Z,101908.34
2023-01-29T06:51:43.721Z,101907.47
2023-01-29T06:54:17.153Z,101924.75
2023-01-29T06:56:47.293Z,101915.28
2023-01-29T06:59:17.773Z,101917.06
2023-01-29T07:01:47.907Z,101923.22
2023-01-29T07:04:18.282Z,101919.69
2023-01-29T07:06:48.246Z,101918.78
2023-01-29T07:09:21.170Z,101919.50
2023-01-29T07:11:51.143Z,101910.13
2023-01-29T07:14:21.450Z,101909.13
2023-01-29T07:16:51.494Z,101907.38
2023-01-29T07:19:21.786Z,101914.09
2023-01-29T07:21:51.964Z,101903.88
2023-01-29T07:24:25.088Z,101905.53
2023-01-29T07:26:55.574Z,101896.97
2023-01-29T07:29:26.678Z,101892.50
2023-01-29T07:31:59.441Z,101896.78
2023-01-29T07:34:29.910Z,101905.53
2023-01-29T07:36:59.850Z,101909.81
2023-01-29T07:39:33.403Z,101920.22
2023-01-29T07:42:03.427Z,101912.50
2023-01-29T07:44:33.864Z,101906.47
2023-01-29T07:47:03.816Z,101895.03
2023-01-29T07:49:34.364Z,101889.03
2023-01-29T07:52:04.245Z,101890.72
2023-01-29T07:54:37.161Z,101894.31
2023-01-29T07:57:07.389Z,101879.66
2023-01-29T07:59:37.875Z,101860.66
2023-01-29T08:02:08.025Z,101862.28
2023-01-29T08:04:38.510Z,101866.53
2023-01-29T08:07:09.479Z,101867.53
2023-01-29T08:09:42.446Z,101876.91
2023-01-29T08:12:12.403Z,101878.75
2023-01-29T08:14:43.179Z,101864.84
2023-01-29T08:17:15.317Z,101863.13
2023-01-29T08:19:45.675Z,101858.88
2023-01-29T08:22:16.564Z,101870.81
2023-01-29T08:24:54.399Z,101877.69
2023-01-29T08:27:30.207Z,101868.16
2023-01-29T08:30:00.552Z,101875.91
2023-01-29T08:32:30.581Z,101864.66
2023-01-29T08:35:01.075Z,101860.28
2023-01-29T08:37:31.255Z,101866.25
2023-01-29T08:40:04.258Z,101854.88
2023-01-29T08:42:34.328Z,101855.72
2023-01-29T08:45:04.862Z,101864.34
2023-01-29T08:47:34.840Z,101860.09
2023-01-29T08:50:05.178Z,101866.97
2023-01-29T08:52:35.183Z,101858.34
2023-01-29T08:55:09.240Z,101869.59
2023-01-29T08:57:39.458Z,101866.94
2023-01-29T09:00:11.989Z,101878.19
2023-01-29T09:02:44.402Z,101876.34
2023-01-29T09:05:15.349Z,101861.69
2023-01-29T09:07:45.650Z,101855.59
2023-01-29T09:10:19.579Z,101869.38
2023-01-29T09:12:49.601Z,101861.69
2023-01-29T09:15:20.115Z,101852.06
2023-01-29T09:17:50.852Z,101855.47
2023-01-29T09:20:22.121Z,101851.09
2023-01-29T09:22:53.719Z,101863.97
2023-01-29T09:25:26.671Z,101844.00
2023-01-29T09:27:57.169Z,101849.19
2023-01-29T09:30:27.985Z,101856.84
2023-01-29T09:32:58.302Z,101858.53
2023-01-29T09:35:29.023Z,101856.75
2023-01-29T09:37:59.369Z,101854.06
2023-01-29T09:40:38.432Z,101853.16
2023-01-29T09:43:15.760Z,101853.09
2023-01-29T09:45:55.599Z,101840.97
2023-01-29T09:48:31.415Z,101834.78
2023-01-29T09:51:07.520Z,101826.09
2023-01-29T09:53:43.752Z,101812.25
2023-01-29T09:56:23.741Z,101812.94
2023-01-29T09:58:53.771Z,101808.59
2023-01-29T10:01:31.579Z,101802.38
2023-01-29T10:04:21.804Z,101811.84
2023-01-29T10:07:09.734Z,101795.41
2023-01-29T10:10:07.608Z,101796.16
2023-01-29T10:13:02.012Z,101800.13
2023-01-29T10:15:45.889Z,101794.81
2023-01-29T10:18:41.397Z,101780.94
2023-01-29T10:21:28.058Z,101773.63
2023-01-29T10:24:12.195Z,101771.91
2023-01-29T10:26:43.623Z,101768.25
2023-01-29T10:29:22.087Z,101774.59
2023-01-29T10:31:58.139Z,101766.31
2023-01-29T10:34:33.048Z,101775.47
2023-01-29T10:37:04.528Z,101778.66
2023-01-29T10:39:35.022Z,101773.38
2023-01-29T10:42:19.075Z,101763.84
2023-01-29T10:45:03.443Z,101763.72
2023-01-29T10:47:53.619Z,101758.28
2023-01-29T10:50:35.159Z,101754.09
2023-01-29T10:53:22.700Z,101751.38
2023-01-29T10:56:05.846Z,101740.59
2023-01-29T10:58:46.903Z,101744.75
2023-01-29T11:01:21.644Z,101734.06
2023-01-29T11:04:00.965Z,101730.16
2023-01-29T11:06:34.055Z,101721.25
2023-01-29T11:09:11.094Z,101721.91
2023-01-29T11:11:45.931Z,101717.19
2023-01-29T11:14:19.467Z,101721.56
2023-01-29T11:16:52.455Z,101709.44
2023-01-29T11:19:40.086Z,101703.16
2023-01-29T11:22:16.951Z,101703.06
2023-01-29T11:24:47.475Z,101703.81
2023-01-29T11:27:30.335Z,101708.75
2023-01-29T11:30:00.326Z,101685.19
2023-01-29T11:32:37.634Z,101676.41
2023-01-29T11:35:23.052Z,101673.31
2023-01-29T11:37:54.185Z,101675.06
2023-01-29T11:40:39.625Z,101677.88
2023-01-29T11:43:22.630Z,101671.69
2023-01-29T11:45:54.355Z,101660.13
2023-01-29T11:48:35.989Z,101663.31
2023-01-29T11:51:06.767Z,101660.72
2023-01-29T11:53:40.729Z,101652.00
2023-01-29T11:56:23.395Z,101645.97
2023-01-29T11:58:56.060Z,101647.59
2023-01-29T12:01:35.067Z,101637.19
2023-01-29T12:04:21.957Z,101644.16
2023-01-29T12:06:55.544Z,101634.13
2023-01-29T12:09:30.271Z,101639.41
2023-01-29T12:12:20.371Z,101635.63
2023-01-29T12:15:06.217Z,101612.94
2023-01-29T12:17:40.744Z,101608.66
2023-01-29T12:20:20.976Z,101605.94
2023-01-29T12:22:58.980Z,101598.25
2023-01-29T12:25:42.849Z,101598.03
2023-01-29T12:28:25.357Z,101597.28
2023-01-29T12:31:13.158Z,101598.03
2023-01-29T12:33:51.402Z,101593.63
2023-01-29T12:36:29.579Z,101583.16
2023-01-29T12:38:59.931Z,101577.69
2023-01-29T12:41:39.375Z,101575.13
2023-01-29T12:44:19.964Z,101567.28
2023-01-29T12:46:55.906Z,101553.44
2023-01-29T12:49:30.374Z,101553.44
2023-01-29T12:52:10.235Z,101547.97
2023-01-29T12:54:44.088Z,101564.53
2023-01-29T12:57:28.732Z,101551.47
2023-01-29T13:00:04.486Z,101571.69
2023-01-29T13:02:42.689Z,101557.78
2023-01-29T13:05:23.025Z,101565.53
2023-01-29T13:08:04.090Z,101562.06
2023-01-29T13:10:45.797Z,101567.22
2023-01-29T13:13:25.026Z,101562.66
2023-01-29T13:15:56.817Z,101553.31
2023-01-29T13:18:40.123Z,101549.00
2023-01-29T13:21:16.371Z,101551.63
2023-01-29T13:23:52.968Z,101553.34
2023-01-29T13:26:24.277Z,101538.81
2023-01-29T13:28:55.668Z,101536.84
2023-01-29T13:31:34.527Z,101540.31
2023-01-29T13:34:15.823Z,101530.09
2023-01-29T13:36:48.279Z,101537.03
2023-01-29T13:39:27.965Z,101543.94
2023-01-29T13:41:59.890Z,101537.91
2023-01-29T13:44:35.312Z,101537.19
2023-01-29T13:47:07.987Z,101541.63
2023-01-29T13:49:41.445Z,101533.00
2023-01-29T13:52:24.389Z,101537.56
2023-01-29T13:55:00.465Z,101535.78
2023-01-29T13:57:56.712Z,101535.00
2023-01-29T14:00:56.391Z,101548.00
2023-01-29T14:04:05.939Z,101524.66
2023-01-29T14:06:53.914Z,101528.28
2023-01-29T14:09:58.801Z,101511.91
2023-01-29T14:12:41.870Z,101522.88
2023-01-29T14:15:32.863Z,101523.28
2023-01-29T14:18:07.110Z,101514.69
2023-01-29T14:20:46.012Z,101527.06
2023-01-29T14:23:44.126Z,101518.69
2023-01-29T14:26:28.734Z,101507.72
2023-01-29T14:29:09.498Z,101528.50
2023-01-29T14:31:44.083Z,101514.97
2023-01-29T14:34:23.712Z,101505.72
2023-01-29T14:36:57.931Z,101515.22
2023-01-29T14:39:36.725Z,101522.59
2023-01-29T14:42:17.615Z,101519.22
2023-01-29T14:45:24.745Z,101521.91
2023-01-29T14:48:04.003Z,101515.03
2023-01-29T14:50:51.067Z,101519.41
2023-01-29T14:53:26.873Z,101514.06
2023-01-29T14:56:01.436Z,101506.34
2023-01-29T14:58:40.145Z,101505.69
2023-01-29T15:01:22.202Z,101496.03
2023-01-29T15:03:54.859Z,101499.72
2023-01-29T15:06:35.161Z,101497.22
2023-01-29T15:09:15.401Z,101500.63
2023-01-29T15:11:58.044Z,101492.06
2023-01-29T15:14:34.141Z,101486.28
2023-01-29T15:17:24.634Z,101483.50
2023-01-29T15:19:55.130Z,101482.59
2023-01-29T15:22:29.809Z,101475.66
2023-01-29T15:25:09.473Z,101479.28
2023-01-29T15:27:44.668Z,101482.88
2023-01-29T15:30:20.575Z,101475.84
2023-01-29T15:32:53.842Z,101467.16
2023-01-29T15:35:31.759Z,101475.09
2023-01-29T15:38:04.697Z,101463.16
2023-01-29T15:40:35.902Z,101458.16
2023-01-29T15:43:25.474Z,101454.59
2023-01-29T15:45:58.239Z,101464.88
2023-01-29T15:48:34.763Z,101463.28
2023-01-29T15:51:08.564Z,101457.03
2023-01-29T15:53:45.204Z,101465.03
2023-01-29T15:56:18.139Z,101451.44
2023-01-29T15:58:51.969Z,101454.19
2023-01-29T16:01:22.976Z,101450.81
2023-01-29T16:03:59.249Z,101447.94
2023-01-29T16:06:30.382Z,101444.44
2023-01-29T16:09:00.829Z,101443.75
2023-01-29T16:11:31.256Z,101440.25
2023-01-29T16:14:01.826Z,101444.44
2023-01-29T16:16:32.034Z,101438.59
2023-01-29T16:19:16.031Z,101442.06
2023-01-29T16:21:47.105Z,101436.88
2023-01-29T16:24:22.442Z,101442.06
2023-01-29T16:26:54.535Z,101442.06
2023-01-29T16:29:27.500Z,101433.50
2023-01-29T16:32:01.982Z,101437.84
2023-01-29T16:34:39.199Z,101426.53
2023-01-29T16:37:20.706Z,101417.78
2023-01-29T16:39:53.028Z,101417.78
2023-01-29T16:42:26.340Z,101424.81
2023-01-29T16:45:03.926Z,101433.56
2023-01-29T16:47:37.431Z,101433.50
2023-01-29T16:50:35.992Z,101423.13
2023-01-29T16:53:21.876Z,101414.47
2023-01-29T16:55:54.862Z,101410.97
2023-01-29T16:58:30.291Z,101412.59
2023-01-29T17:01:04.093Z,101429.09
2023-01-29T17:03:37.147Z,101415.19
2023-01-29T17:06:16.050Z,101425.56
2023-01-29T17:08:46.614Z,101413.44
2023-01-29T17:11:30.257Z,101414.34
2023-01-29T17:14:00.660Z,101402.06
2023-01-29T17:16:33.350Z,101398.72
2023-01-29T17:19:05.547Z,101402.13
2023-01-29T17:21:39.064Z,101396.09
2023-01-29T17:24:10.219Z,101404.03
2023-01-29T17:26:41.282Z,101381.50
2023-01-29T17:29:16.222Z,101388.31
2023-01-29T17:31:47.202Z,101388.66
2023-01-29T17:34:18.755Z,101393.13
2023-01-29T17:36:52.051Z,101377.56
2023-01-29T17:39:24.045Z,101368.22
2023-01-29T17:41:56.733Z,101369.00
2023-01-29T17:44:28.800Z,101364.66
2023-01-29T17:46:59.842Z,101356.78
2023-01-29T17:49:32.304Z,101359.25
2023-01-29T17:52:05.325Z,101334.09
2023-01-29T17:54:35.510Z,101344.47
2023-01-29T17:57:06.379Z,101337.47
2023-01-29T17:59:36.873Z,101333.09
2023-01-29T18:02:08.821Z,101325.25
2023-01-29T18:05:00.668Z,101320.75
2023-01-29T18:07:33.837Z,101319.16
2023-01-29T18:10:03.974Z,101322.50
2023-01-29T18:12:34.874Z,101318.09
2023-01-29T18:15:05.009Z,101297.13
2023-01-29T18:17:35.476Z,101294.59
2023-01-29T18:20:06.577Z,101290.31
2023-01-29T18:22:39.587Z,101280.84
2023-01-29T18:25:10.548Z,101284.53
2023-01-29T18:27:41.159Z,101286.03
2023-01-29T18:30:12.960Z,101282.53
2023-01-29T18:32:43.633Z,101276.41
2023-01-29T18:35:13.727Z,101282.56
2023-01-29T18:37:47.004Z,101278.97
2023-01-29T18:40:17.473Z,101276.56
2023-01-29T18:42:48.719Z,101290.50
2023-01-29T18:45:19.169Z,101268.84
2023-01-29T18:47:49.800Z,101268.00
2023-01-29T18:50:23.375Z,101301.66
2023-01-29T18:52:57.093Z,101263.88
2023-01-29T18:55:27.617Z,101264.56
2023-01-29T18:58:28.033Z,101288.91
2023-01-29T19:00:48.438Z,101266.47
2023-01-29T19:03:21.829Z,101272.47
2023-01-29T19:05:52.042Z,101256.09
2023-01-29T19:08:25.093Z,101250.66
2023-01-29T19:10:55.773Z,101247.16
2023-01-29T19:13:29.193Z,101241.13
2023-01-29T19:15:59.360Z,101239.50
2023-01-29T19:18:30.510Z,101234.47
2023-01-29T19:21:00.610Z,101250.03
2023-01-29T19:23:33.727Z,101225.13
2023-01-29T19:26:03.744Z,101243.44
2023-01-29T19:28:34.264Z,101262.53
2023-01-29T19:31:04.618Z,101211.53
2023-01-29T19:33:35.250Z,101210.78
2023-01-29T19:36:07.097Z,101199.34
2023-01-29T19:38:40.917Z,101199.38
2023-01-29T19:41:11.001Z,101204.44
2023-01-29T19:43:43.001Z,101194.84
2023-01-29T19:46:13.848Z,101175.69
2023-01-29T19:48:44.724Z,101174.84
2023-01-29T19:51:15.407Z,101162.63
2023-01-29T19:53:48.874Z,101160.97
2023-01-29T19:56:20.629Z,101174.63
2023-01-29T19:58:57.447Z,101164.22
2023-01-29T20:01:29.525Z,101145.16
2023-01-29T20:04:00.309Z,101159.66
2023-01-29T20:06:32.662Z,101155.25
2023-01-29T20:11:56.246Z,101150.13
2023-01-29T20:14:30.649Z,101144.72
2023-01-29T20:17:00.794Z,101147.53
2023-01-29T20:19:31.314Z,101137.31
2023-01-29T20:22:02.573Z,101140.66
2023-01-29T20:32:50.523Z,101110.78
2023-01-29T20:35:23.715Z,101106.47
2023-01-29T20:37:53.678Z,101107.38
2023-01-29T20:40:25.664Z,101102.09
2023-01-29T20:42:56.161Z,101103.91
2023-01-29T20:45:27.243Z,101084.06
2023-01-29T20:48:00.419Z,101100.72
2023-01-29T20:50:37.631Z,101084.44
2023-01-29T20:53:08.069Z,101067.19
2023-01-29T20:55:39.173Z,101062.53
2023-01-29T20:58:09.705Z,101061.69
2023-01-29T21:00:40.595Z,101058.34
2023-01-29T21:03:13.239Z,101080.09
2023-01-29T21:05:44.923Z,101048.03
2023-01-29T21:08:17.297Z,101052.47
2023-01-29T21:10:47.843Z,101042.75
2023-01-29T21:13:17.848Z,101040.16
2023-01-29T21:15:48.238Z,101023.84
2023-01-29T21:18:26.767Z,101028.09
2023-01-29T21:20:57.569Z,101023.06
2023-01-29T21:23:27.579Z,101012.16
2023-01-29T21:26:04.365Z,101029.56
2023-01-29T21:28:35.270Z,101003.59
2023-01-29T21:31:07.494Z,101019.31
2023-01-29T21:33:40.269Z,101002.22
2023-01-29T21:36:12.340Z,101002.31
2023-01-29T21:38:42.341Z,100993.69
2023-01-29T21:41:12.715Z,100995.47
2023-01-29T21:43:40.076Z,100988.50
2023-01-29T21:46:12.252Z,100991.25
2023-01-29T21:48:45.033Z,100973.03
2023-01-29T21:51:17.278Z,100976.50
2023-01-29T21:53:48.747Z,100952.34
2023-01-29T21:56:19.648Z,100953.16
2023-01-29T21:58:49.930Z,100955.75
2023-01-29T22:01:36.759Z,100954.06
2023-01-29T22:04:15.682Z,100949.69
2023-01-29T22:06:46.076Z,100950.66
2023-01-29T22:09:18.674Z,100942.88
2023-01-29T22:11:49.278Z,100935.91
2023-01-29T22:14:19.682Z,100934.25
2023-01-29T22:16:50.119Z,100927.31
2023-01-29T22:19:23.587Z,100928.13
2023-01-29T22:21:54.763Z,100925.78
2023-01-29T22:24:25.389Z,100933.41
2023-01-29T22:26:55.806Z,100922.94
2023-01-29T22:29:25.848Z,100911.06
2023-01-29T22:31:56.583Z,100906.56
2023-01-29T22:34:29.236Z,100901.38
2023-01-29T22:37:00.110Z,100896.03
2023-01-29T22:39:30.212Z,100885.72
2023-01-29T22:42:00.580Z,100871.16
2023-01-29T22:44:30.657Z,100862.38
2023-01-29T22:47:01.003Z,100858.78
2023-01-29T22:49:33.576Z,100862.63
2023-01-29T22:52:12.845Z,100859.00
2023-01-29T22:54:44.491Z,100848.91
2023-01-29T22:57:17.151Z,100839.19
2023-01-29T22:59:47.699Z,100831.34
2023-01-29T23:02:18.738Z,100820.19
2023-01-29T23:05:06.483Z,100841.94
2023-01-29T23:07:37.560Z,100821.13
2023-01-29T23:10:08.963Z,100804.72
2023-01-29T23:12:39.859Z,100791.66
2023-01-29T23:15:10.907Z,100805.66
2023-01-29T23:17:41.459Z,100802.81
2023-01-29T23:20:15.493Z,100788.22
2023-01-29T23:22:45.855Z,100779.34
2023-01-29T23:25:16.217Z,100784.66
2023-01-29T23:27:43.974Z,100763.72
2023-01-29T23:30:14.954Z,100761.13
2023-01-29T23:32:45.729Z,100767.25
2023-01-29T23:35:18.485Z,100758.72
2023-01-29T23:37:49.135Z,100753.59
2023-01-29T23:40:20.044Z,100766.66
2023-01-29T23:42:51.285Z,100738.13
2023-01-29T23:45:21.200Z,100751.16
2023-01-29T23:47:51.499Z,100732.84
2023-01-29T23:50:24.105Z,100754.44
2023-01-29T23:52:54.297Z,100723.53
2023-01-29T23:55:24.253Z,100705.31
2023-01-29T23:57:54.526Z,100723.31
